Cruzeiro Do Canal — CSVG — position and weather

sailwx.info

Track history (hours):
 
Tides and Currents Weather Stations Pressure Air Temp Water Temp Dewpoint Dewpoint Depression Visibility Wind Speed Wind Dir Waves Ship Positions

Cruzeiro Do Canal

Last reported at 2017-Jul-22 23:35 UTC. Time now 2017-Jul-23 02:31 UTC.
Position N 38°32' W 028°37'.

Length 32 m; draft 2.3 m.

Type: Passenger vessel. MMSI: 204701250.

Date/timePositionNaut miles runAvg speedWind from/ knotsBaromVisibWave heightAir tempDewpointWater temp
2017-Jul-22 23:35N 38°32' W 028°37'0 0.1
2017-Jul-22 23:31N 38°32' W 028°37'4 8.5
2017-Jul-22 23:00N 38°32' W 028°32'0 0.2
2017-Jul-22 22:30N 38°32' W 028°32'510.3
2017-Jul-22 22:00N 38°35' W 028°27'612.0
2017-Jul-22 21:31N 38°38' W 028°20'612.4
2017-Jul-22 21:01N 38°40' W 028°13'1 1.0
2017-Jul-22 20:31N 38°41' W 028°12'4 7.1
2017-Jul-22 20:00N 38°39' W 028°16'611.8
2017-Jul-22 19:30N 38°37' W 028°23'611.5
2017-Jul-22 19:00N 38°34' W 028°30'3 5.1
2017-Jul-22 18:30N 38°32' W 028°32'4 8.6
2017-Jul-22 18:01N 38°32' W 028°37'0 0.1
2017-Jul-22 17:30N 38°32' W 028°37'0 0.0
2017-Jul-22 17:00N 38°32' W 028°37'0 0.0
2017-Jul-22 16:30N 38°32' W 028°37'0 0.0
2017-Jul-22 16:00N 38°32' W 028°37'0 0.0
2017-Jul-22 15:31N 38°32' W 028°37'0 0.0
2017-Jul-22 15:00N 38°32' W 028°37'0 0.0
2017-Jul-22 14:00N 38°32' W 028°37'0 0.0
2017-Jul-22 13:31N 38°32' W 028°37'0 0.0
2017-Jul-22 13:00N 38°32' W 028°37'0 0.0
2017-Jul-22 12:30N 38°32' W 028°37'3 6.5
2017-Jul-22 12:00N 38°32' W 028°33'2 4.0
2017-Jul-22 11:30N 38°33' W 028°31'611.1
2017-Jul-22 11:00N 38°36' W 028°25'611.6
2017-Jul-22 10:31N 38°38' W 028°18'510.6
2017-Jul-22 10:00N 38°41' W 028°12'1 3.0
2017-Jul-22 09:30N 38°40' W 028°14'611.5
2017-Jul-22 09:00N 38°38' W 028°21'611.7
2017-Jul-22 08:30N 38°36' W 028°28'612.2
2017-Jul-22 08:00N 38°33' W 028°35'2 4.4
2017-Jul-22 07:30N 38°32' W 028°37'0 0.2
2017-Jul-22 07:00N 38°32' W 028°37'0 0.0
2017-Jul-22 06:30N 38°32' W 028°37'0 0.0
2017-Jul-22 06:00N 38°32' W 028°37'0 0.1
2017-Jul-22 05:30N 38°32' W 028°37'611.4
2017-Jul-22 05:00N 38°35' W 028°31'612.3
2017-Jul-22 04:31N 38°37' W 028°23'611.9
2017-Jul-22 04:00N 38°39' W 028°16'3 6.7
2017-Jul-22 03:30N 38°40' W 028°12'612.1
2017-Jul-22 03:00N 38°38' W 028°19'612.1
2017-Jul-22 02:30N 38°36' W 028°27'510.8
2017-Jul-22 02:00N 38°32' W 028°32'1 2.4
2017-Jul-22 01:30N 38°32' W 028°33'3 6.0
2017-Jul-22 01:00N 38°32' W 028°37'0 0.0
2017-Jul-21 03:11N 38°32' W 028°37'0 0.3
2017-Jul-21 03:00N 38°32' W 028°37'4 8.6
2017-Jul-21 02:30N 38°32' W 028°32'0 0.0
2017-Jul-21 02:00N 38°32' W 028°32'0 0.0
2017-Jul-21 01:31N 38°32' W 028°32'0 0.0
2017-Jul-21 01:00N 38°32' W 028°32'0 0.0
2017-Jul-21 00:30N 38°32' W 028°32'0 0.0
2017-Jul-21 00:00N 38°32' W 028°32'0 0.0
2017-Jul-20 23:30N 38°32' W 028°32'0 0.0
2017-Jul-20 23:00N 38°32' W 028°32'1 1.3
2017-Jul-20 22:31N 38°33' W 028°32'611.0
2017-Jul-20 22:00N 38°36' W 028°27'612.3
2017-Jul-20 21:30N 38°38' W 028°19'612.2
2017-Jul-20 21:00N 38°41' W 028°12'3 5.5
2017-Jul-20 20:30N 38°40' W 028°15'611.4
2017-Jul-20 20:00N 38°37' W 028°22'611.3
2017-Jul-20 19:30N 38°35' W 028°29'4 7.6
2017-Jul-20 19:00N 38°32' W 028°32'4 8.5
2017-Jul-20 18:30N 38°32' W 028°37'0 0.0
2017-Jul-20 18:00N 38°32' W 028°37'0 0.0
2017-Jul-20 17:30N 38°32' W 028°37'0 0.0
2017-Jul-20 17:00N 38°32' W 028°37'0 0.0
2017-Jul-20 16:30N 38°32' W 028°37'0 0.0
2017-Jul-20 16:01N 38°32' W 028°37'0 0.0
2017-Jul-20 15:30N 38°32' W 028°37'0 0.0
2017-Jul-20 15:00N 38°32' W 028°37'0 0.0
2017-Jul-20 14:01N 38°32' W 028°37'0 0.0
2017-Jul-20 13:31N 38°32' W 028°37'0 0.0
2017-Jul-20 13:01N 38°32' W 028°37'0 0.0
2017-Jul-20 12:30N 38°32' W 028°37'2 3.4
2017-Jul-20 12:00N 38°32' W 028°35'2 5.0
2017-Jul-20 11:30N 38°32' W 028°32'511.0
2017-Jul-20 11:00N 38°36' W 028°27'611.8
2017-Jul-20 10:30N 38°39' W 028°20'612.3
2017-Jul-20 10:00N 38°40' W 028°13'0 0.7
2017-Jul-20 09:30N 38°40' W 028°13'611.5
2017-Jul-20 09:00N 38°38' W 028°20'611.6
2017-Jul-20 08:30N 38°36' W 028°27'611.1
2017-Jul-20 08:00N 38°32' W 028°32'3 6.6
2017-Jul-20 07:30N 38°32' W 028°36'1 1.6
2017-Jul-20 07:00N 38°32' W 028°37'1 0.0
2017-Jul-18 14:01N 38°32' W 028°36'  
Track history (hours):
 
Tides and Currents Weather Stations Pressure Air Temp Water Temp Dewpoint Dewpoint Depression Visibility Wind Speed Wind Dir Waves Ship Positions

Cruzeiro Do Canal

Last reported at 2017-Jul-22 23:35 UTC. Time now 2017-Jul-23 02:31 UTC.
Position N 38°32' W 028°37'.

Length 32 m; draft 2.3 m.

Type: Passenger vessel. MMSI: 204701250.

Date/timePositionNaut miles runAvg speedWind from/ knotsBaromVisibWave heightAir tempDewpointWater temp
2017-Jul-22 23:35N 38°32' W 028°37'0 0.1
2017-Jul-22 23:31N 38°32' W 028°37'4 8.5
2017-Jul-22 23:00N 38°32' W 028°32'0 0.2
2017-Jul-22 22:30N 38°32' W 028°32'510.3
2017-Jul-22 22:00N 38°35' W 028°27'612.0
2017-Jul-22 21:31N 38°38' W 028°20'612.4
2017-Jul-22 21:01N 38°40' W 028°13'1 1.0
2017-Jul-22 20:31N 38°41' W 028°12'4 7.1
2017-Jul-22 20:00N 38°39' W 028°16'611.8
2017-Jul-22 19:30N 38°37' W 028°23'611.5
2017-Jul-22 19:00N 38°34' W 028°30'3 5.1
2017-Jul-22 18:30N 38°32' W 028°32'4 8.6
2017-Jul-22 18:01N 38°32' W 028°37'0 0.1
2017-Jul-22 17:30N 38°32' W 028°37'0 0.0
2017-Jul-22 17:00N 38°32' W 028°37'0 0.0
2017-Jul-22 16:30N 38°32' W 028°37'0 0.0
2017-Jul-22 16:00N 38°32' W 028°37'0 0.0
2017-Jul-22 15:31N 38°32' W 028°37'0 0.0
2017-Jul-22 15:00N 38°32' W 028°37'0 0.0
2017-Jul-22 14:00N 38°32' W 028°37'0 0.0
2017-Jul-22 13:31N 38°32' W 028°37'0 0.0
2017-Jul-22 13:00N 38°32' W 028°37'0 0.0
2017-Jul-22 12:30N 38°32' W 028°37'3 6.5
2017-Jul-22 12:00N 38°32' W 028°33'2 4.0
2017-Jul-22 11:30N 38°33' W 028°31'611.1
2017-Jul-22 11:00N 38°36' W 028°25'611.6
2017-Jul-22 10:31N 38°38' W 028°18'510.6
2017-Jul-22 10:00N 38°41' W 028°12'1 3.0
2017-Jul-22 09:30N 38°40' W 028°14'611.5
2017-Jul-22 09:00N 38°38' W 028°21'611.7
2017-Jul-22 08:30N 38°36' W 028°28'612.2
2017-Jul-22 08:00N 38°33' W 028°35'2 4.4
2017-Jul-22 07:30N 38°32' W 028°37'0 0.2
2017-Jul-22 07:00N 38°32' W 028°37'0 0.0
2017-Jul-22 06:30N 38°32' W 028°37'0 0.0
2017-Jul-22 06:00N 38°32' W 028°37'0 0.1
2017-Jul-22 05:30N 38°32' W 028°37'611.4
2017-Jul-22 05:00N 38°35' W 028°31'612.3
2017-Jul-22 04:31N 38°37' W 028°23'611.9
2017-Jul-22 04:00N 38°39' W 028°16'3 6.7
2017-Jul-22 03:30N 38°40' W 028°12'612.1
2017-Jul-22 03:00N 38°38' W 028°19'612.1
2017-Jul-22 02:30N 38°36' W 028°27'510.8
2017-Jul-22 02:00N 38°32' W 028°32'1 2.4
2017-Jul-22 01:30N 38°32' W 028°33'3 6.0
2017-Jul-22 01:00N 38°32' W 028°37'0 0.0
2017-Jul-21 03:11N 38°32' W 028°37'0 0.3
2017-Jul-21 03:00N 38°32' W 028°37'4 8.6
2017-Jul-21 02:30N 38°32' W 028°32'0 0.0
2017-Jul-21 02:00N 38°32' W 028°32'0 0.0
2017-Jul-21 01:31N 38°32' W 028°32'0 0.0
2017-Jul-21 01:00N 38°32' W 028°32'0 0.0
2017-Jul-21 00:30N 38°32' W 028°32'0 0.0
2017-Jul-21 00:00N 38°32' W 028°32'0 0.0
2017-Jul-20 23:30N 38°32' W 028°32'0 0.0
2017-Jul-20 23:00N 38°32' W 028°32'1 1.3
2017-Jul-20 22:31N 38°33' W 028°32'611.0
2017-Jul-20 22:00N 38°36' W 028°27'612.3
2017-Jul-20 21:30N 38°38' W 028°19'612.2
2017-Jul-20 21:00N 38°41' W 028°12'3 5.5
2017-Jul-20 20:30N 38°40' W 028°15'611.4
2017-Jul-20 20:00N 38°37' W 028°22'611.3
2017-Jul-20 19:30N 38°35' W 028°29'4 7.6
2017-Jul-20 19:00N 38°32' W 028°32'4 8.5
2017-Jul-20 18:30N 38°32' W 028°37'0 0.0
2017-Jul-20 18:00N 38°32' W 028°37'0 0.0
2017-Jul-20 17:30N 38°32' W 028°37'0 0.0
2017-Jul-20 17:00N 38°32' W 028°37'0 0.0
2017-Jul-20 16:30N 38°32' W 028°37'0 0.0
2017-Jul-20 16:01N 38°32' W 028°37'0 0.0
2017-Jul-20 15:30N 38°32' W 028°37'0 0.0
2017-Jul-20 15:00N 38°32' W 028°37'0 0.0
2017-Jul-20 14:01N 38°32' W 028°37'0 0.0
2017-Jul-20 13:31N 38°32' W 028°37'0 0.0
2017-Jul-20 13:01N 38°32' W 028°37'0 0.0
2017-Jul-20 12:30N 38°32' W 028°37'2 3.4
2017-Jul-20 12:00N 38°32' W 028°35'2 5.0
2017-Jul-20 11:30N 38°32' W 028°32'511.0
2017-Jul-20 11:00N 38°36' W 028°27'611.8
2017-Jul-20 10:30N 38°39' W 028°20'612.3
2017-Jul-20 10:00N 38°40' W 028°13'0 0.7
2017-Jul-20 09:30N 38°40' W 028°13'611.5
2017-Jul-20 09:00N 38°38' W 028°20'611.6
2017-Jul-20 08:30N 38°36' W 028°27'611.1
2017-Jul-20 08:00N 38°32' W 028°32'3 6.6
2017-Jul-20 07:30N 38°32' W 028°36'1 1.6
2017-Jul-20 07:00N 38°32' W 028°37'1 0.0
2017-Jul-18 14:01N 38°32' W 028°36'  

Dump ship's entire track history